Romeo-charlie II — FO2619 — position and weather

sailwx.info

Track history (hours):
 
Tides and Currents Weather Stations Pressure Air Temp Water Temp Dewpoint Dewpoint Depression Visibility Wind Speed Wind Dir Waves Ship Positions

Romeo-charlie II

Last reported at 2017-Apr-19 15:59 UTC. Time now 2017-Apr-24 15:20 UTC.
Position N 47°36' W 002°57'.

Length 12 m.

Type: Sailing vessel. MMSI: 227728860.

Date/timePositionNaut miles runAvg speedWind from/ knotsBaromVisibWave heightAir tempDewpointWater temp
2017-Apr-19 15:59N 47°36' W 002°57'1 2.3
2017-Apr-19 15:30N 47°35' W 002°56'4 5.5
2017-Apr-19 14:49N 47°32' W 002°54'2 0.9
2017-Apr-19 12:30N 47°34' W 002°55'3 5.2
2017-Apr-19 11:59N 47°36' W 002°52'2 4.4
2017-Apr-19 11:30N 47°37' W 002°49'3 5.1
2017-Apr-19 11:00N 47°38' W 002°46'  
2017-Apr-11 10:09N 47°39' W 002°46'0 0.0
2017-Apr-11 10:00N 47°39' W 002°46'0 0.0
2017-Apr-11 09:30N 47°39' W 002°46'  
Track history (hours):
 
Tides and Currents Weather Stations Pressure Air Temp Water Temp Dewpoint Dewpoint Depression Visibility Wind Speed Wind Dir Waves Ship Positions

Romeo-charlie II

Last reported at 2017-Apr-19 15:59 UTC. Time now 2017-Apr-24 15:20 UTC.
Position N 47°36' W 002°57'.

Length 12 m.

Type: Sailing vessel. MMSI: 227728860.

Date/timePositionNaut miles runAvg speedWind from/ knotsBaromVisibWave heightAir tempDewpointWater temp
2017-Apr-19 15:59N 47°36' W 002°57'1 2.3
2017-Apr-19 15:30N 47°35' W 002°56'4 5.5
2017-Apr-19 14:49N 47°32' W 002°54'2 0.9
2017-Apr-19 12:30N 47°34' W 002°55'3 5.2
2017-Apr-19 11:59N 47°36' W 002°52'2 4.4
2017-Apr-19 11:30N 47°37' W 002°49'3 5.1
2017-Apr-19 11:00N 47°38' W 002°46'  
2017-Apr-11 10:09N 47°39' W 002°46'0 0.0
2017-Apr-11 10:00N 47°39' W 002°46'0 0.0
2017-Apr-11 09:30N 47°39' W 002°46'  

Dump ship's entire track history